Houston / Dunn Helistop, TX

8:24 AM CDT on April 22, 2018 (GMT -0500)
Houston / Dunn Helistop

Weather History for KMCJ - March, 2014

Change the Weather History Date:

Friday, March 7, 2014

  Actual Average (KHOU) Record (KHOU)
Temperature  
Mean Temperature 55 °F -  
Max Temperature 66 °F 68 °F 90 °F (1911)
Min Temperature 44 °F 50 °F 28 °F (1989)
Degree Days  
Heating Degree Days 10    
Growing Degree Days 5 (Base 50)    
Moisture  
Dew Point 42 °F    
Average Humidity 65    
Maximum Humidity 82    
Minimum Humidity 40    
Precipitation  
Precipitation 0.00 in - - ()
Sea Level Pressure  
Sea Level Pressure 30.00 in    
Wind  
Wind Speed 7 mph (ENE)    
Max Wind Speed 15 mph    
Max Gust Speed 21 mph    
Visibility 10 miles    
Events      
Averages and records for this station are not official NWS values.
T = Trace of Precipitation, MM = Missing Value Source: NWS Daily Summary

Daily Weather History Graph

Daily Weather History Graph

Search for Another Location

Airport or City:

Astronomy

Mar. 07, 2014 Rise Set
Actual Time 6:40 AM CST 6:24 PM CST
Civil Twilight 6:16 AM CST 6:48 PM CST
Nautical Twilight 5:49 AM CST 7:16 PM CST
Astronomical Twilight 5:21 AM CST 7:44 PM CST
Moon 11:01 AM CST (3/7) 12:04 AM CST (3/7)
Length of Visible Light 12h 31m
Length of Day
11h 44m
Waxing Crescent, 42% of the Moon is Illuminated
Mar 7
Waxing Crescent
Mar 8
First Quarter
Mar 16
Full
Mar 23
Last Quarter
Mar 30
New

Hourly Weather History & Observations

Time (CST) Temp. Windchill Dew Point Humidity Pressure Visibility Wind Dir Wind Speed Gust Speed Precip Events Conditions
12:15 AM 50.0 °F - 39.2 °F 66% 30.05 in 9.0 mi North 8.1 mph - N/A   Clear
12:35 AM 48.2 °F - 39.2 °F 71% 30.05 in 9.0 mi North 6.9 mph - N/A   Clear
12:55 AM 48.2 °F - 39.2 °F 71% 30.05 in 10.0 mi North 6.9 mph - N/A   Clear
1:15 AM 48.2 °F - 39.2 °F 71% 30.05 in 9.0 mi North 6.9 mph - N/A   Clear
1:35 AM 48.2 °F - 39.2 °F 71% 30.04 in 9.0 mi North 5.8 mph - N/A   Clear
1:55 AM 48.2 °F - 39.2 °F 71% 30.04 in 8.0 mi Calm Calm - N/A   Clear
2:15 AM 48.2 °F - 39.2 °F 71% 30.04 in 7.0 mi Calm Calm - N/A   Clear
2:35 AM 46.4 °F - 39.2 °F 76% 30.04 in 8.0 mi Calm Calm - N/A   Clear
2:55 AM 48.2 °F - 39.2 °F 71% 30.03 in 10.0 mi Calm Calm - N/A   Clear
3:15 AM 46.4 °F - 37.4 °F 71% 30.03 in 10.0 mi Calm Calm - N/A   Clear
3:35 AM 46.4 °F - 37.4 °F 71% 30.02 in 10.0 mi Calm Calm - N/A   Clear
3:55 AM 46.4 °F - 37.4 °F 71% 30.02 in 10.0 mi Calm Calm - N/A   Clear
4:15 AM 46.4 °F 41.9 °F 37.4 °F 71% 30.01 in 10.0 mi NE 9.2 mph - N/A   Clear
4:35 AM 46.4 °F 42.9 °F 37.4 °F 71% 30.00 in 10.0 mi NNE 6.9 mph - N/A   Clear
4:55 AM 46.4 °F 43.5 °F 37.4 °F 71% 30.01 in 10.0 mi NNE 5.8 mph - N/A   Clear
5:15 AM 46.4 °F 43.5 °F 37.4 °F 71% 30.01 in 10.0 mi NNE 5.8 mph - N/A   Clear
5:35 AM 46.4 °F 43.5 °F 37.4 °F 71% 30.02 in 10.0 mi NNE 5.8 mph - N/A   Clear
5:55 AM 46.4 °F 42.9 °F 37.4 °F 71% 30.02 in 10.0 mi NE 6.9 mph - N/A   Clear
6:15 AM 44.6 °F 40.7 °F 39.2 °F 81% 30.02 in 10.0 mi NE 6.9 mph - N/A   Clear
6:35 AM 44.6 °F 41.4 °F 39.2 °F 81% 30.03 in 10.0 mi NNE 5.8 mph - N/A   Clear
6:55 AM 44.6 °F - 39.2 °F 81% 30.03 in 10.0 mi North - - N/A   Clear
7:15 AM 46.4 °F 44.3 °F 39.2 °F 76% 30.04 in 10.0 mi NNE 4.6 mph - N/A   Clear
7:35 AM 46.4 °F 43.5 °F 39.2 °F 76% 30.05 in 9.0 mi NNE 5.8 mph - N/A   Clear
7:55 AM 48.2 °F - 39.2 °F 71% 30.05 in 10.0 mi NNE 3.5 mph - N/A   Clear
8:15 AM 48.2 °F - 41.0 °F 76% 30.06 in 10.0 mi NNE 4.6 mph - N/A   Clear
8:35 AM 50.0 °F - 41.0 °F 71% 30.06 in 10.0 mi NE 5.8 mph - N/A   Clear
8:55 AM 53.6 °F - 41.0 °F 62% 30.07 in 10.0 mi East 9.2 mph - N/A   Clear
9:15 AM 55.4 °F - 41.0 °F 58% 30.08 in 10.0 mi ESE 9.2 mph - N/A   Clear
9:35 AM 57.2 °F - 41.0 °F 55% 30.08 in 10.0 mi NNE 5.8 mph - N/A   Clear
9:55 AM 59.0 °F - 42.8 °F 55% 30.08 in 10.0 mi East 6.9 mph - N/A   Clear
10:15 AM 59.0 °F - 39.2 °F 48% 30.08 in 10.0 mi East 8.1 mph - N/A   Clear
10:35 AM 59.0 °F - 39.2 °F 48% 30.07 in 10.0 mi ESE 11.5 mph - N/A   Clear
10:55 AM 59.0 °F - 37.4 °F 45% 30.06 in 10.0 mi SE 10.4 mph 17.3 mph N/A   Clear
11:15 AM 60.8 °F - 39.2 °F 45% 30.06 in 10.0 mi SE 9.2 mph - N/A   Clear
11:35 AM 62.6 °F - 39.2 °F 42% 30.05 in 10.0 mi East 6.9 mph - N/A   Clear
11:55 AM 62.6 °F - 39.2 °F 42% 30.05 in 10.0 mi ENE 6.9 mph - N/A   Clear
12:15 PM 62.6 °F - 39.2 °F 42% 30.04 in 10.0 mi East 9.2 mph 17.3 mph N/A   Clear
12:35 PM 64.4 °F - 41.0 °F 42% 30.02 in 10.0 mi East 6.9 mph - N/A   Clear
12:55 PM 64.4 °F - 41.0 °F 42% 30.00 in 10.0 mi ESE 10.4 mph 16.1 mph N/A   Clear
1:15 PM 64.4 °F - 39.2 °F 40% 29.98 in 10.0 mi ESE 9.2 mph - N/A   Clear
1:35 PM 64.4 °F - 41.0 °F 42% 29.97 in 10.0 mi SE 13.8 mph 19.6 mph N/A   Clear
1:55 PM 66.2 °F - 42.8 °F 43% 29.97 in 10.0 mi SSE 11.5 mph 16.1 mph N/A   Clear
2:15 PM 64.4 °F - 42.8 °F 45% 29.95 in 10.0 mi SSE 15.0 mph 19.6 mph N/A   Clear
2:35 PM 66.2 °F - 44.6 °F 46% 29.94 in 10.0 mi SSE 13.8 mph 20.7 mph N/A   Clear
2:55 PM 66.2 °F - 44.6 °F 46% 29.94 in 9.0 mi ESE 10.4 mph 18.4 mph N/A   Clear
5:15 PM 59.0 °F - 46.4 °F 63% 29.93 in 10.0 mi SSE 13.8 mph 17.3 mph N/A   Clear
5:35 PM 59.0 °F - 46.4 °F 63% 29.93 in 10.0 mi SSE 15.0 mph - N/A   Clear
5:55 PM 59.0 °F - 46.4 °F 63% 29.93 in 10.0 mi ESE 11.5 mph 18.4 mph N/A   Clear
6:15 PM 57.2 °F - 48.2 °F 72% 29.93 in 10.0 mi ESE 13.8 mph - N/A   Clear
6:35 PM 57.2 °F - 46.4 °F 67% 29.93 in 10.0 mi East 10.4 mph - N/A   Clear
6:55 PM 57.2 °F - 46.4 °F 67% 29.92 in 10.0 mi ESE 11.5 mph 18.4 mph N/A   Clear
7:15 PM 57.2 °F - 46.4 °F 67% 29.93 in 10.0 mi East 11.5 mph - N/A   Clear
7:35 PM 55.4 °F - 46.4 °F 72% 29.94 in 10.0 mi East 9.2 mph - N/A   Clear
7:55 PM 55.4 °F - 46.4 °F 72% 29.94 in 10.0 mi ESE 10.4 mph 19.6 mph N/A   Clear
8:15 PM 55.4 °F - 46.4 °F 72% 29.95 in 10.0 mi ESE 11.5 mph - N/A   Clear
8:35 PM 55.4 °F - 48.2 °F 77% 29.94 in 10.0 mi ESE 13.8 mph 17.3 mph N/A   Clear
8:55 PM 55.4 °F - 48.2 °F 77% 29.94 in 10.0 mi East 10.4 mph - N/A   Clear
9:15 PM 55.4 °F - 48.2 °F 77% 29.96 in 10.0 mi ENE 6.9 mph - N/A   Clear
9:35 PM 55.4 °F - 48.2 °F 77% 29.96 in 10.0 mi NNE 4.6 mph - N/A   Clear
9:55 PM 55.4 °F - 48.2 °F 77% 29.96 in 10.0 mi East 8.1 mph - N/A   Clear
10:15 PM 55.4 °F - 48.2 °F 77% 29.96 in 10.0 mi ENE 8.1 mph - N/A   Clear
10:35 PM 55.4 °F - 48.2 °F 77% 29.97 in 10.0 mi NE 5.8 mph - N/A   Mostly Cloudy
10:55 PM 55.4 °F - 48.2 °F 77% 29.97 in 10.0 mi NE 5.8 mph - N/A   Overcast
11:15 PM 55.4 °F - 50.0 °F 82% 29.96 in 10.0 mi ENE 8.1 mph - N/A   Mostly Cloudy
11:35 PM 55.4 °F - 50.0 °F 82% 29.98 in 10.0 mi Calm Calm - N/A   Scattered Clouds
11:55 PM 55.4 °F - 50.0 °F 82% 29.97 in 10.0 mi NE 6.9 mph - N/A   Mostly Cloudy